sensor_id;sensor_type;location;lat;lon;timestamp;temperature;humidity
10722;DHT22;5412;59.450;18.124;2023-01-15T00:01:15;6.70;99.90
10722;DHT22;5412;59.450;18.124;2023-01-15T00:03:42;6.20;99.90
10722;DHT22;5412;59.450;18.124;2023-01-15T00:06:08;6.20;99.90
10722;DHT22;5412;59.450;18.124;2023-01-15T00:08:34;6.30;99.90
10722;DHT22;5412;59.450;18.124;2023-01-15T00:11:03;6.20;99.90
10722;DHT22;5412;59.450;18.124;2023-01-15T00:13:29;6.20;99.90
10722;DHT22;5412;59.450;18.124;2023-01-15T00:16:03;6.20;99.90
10722;DHT22;5412;59.450;18.124;2023-01-15T00:18:28;6.20;99.90
10722;DHT22;5412;59.450;18.124;2023-01-15T00:20:59;6.20;99.90
10722;DHT22;5412;59.450;18.124;2023-01-15T00:23:25;6.30;99.90
10722;DHT22;5412;59.450;18.124;2023-01-15T00:26:12;6.30;99.90
10722;DHT22;5412;59.450;18.124;2023-01-15T00:28:57;6.30;99.90
10722;DHT22;5412;59.450;18.124;2023-01-15T00:31:23;6.30;99.90
10722;DHT22;5412;59.450;18.124;2023-01-15T00:33:49;6.30;99.90
10722;DHT22;5412;59.450;18.124;2023-01-15T00:36:15;6.20;99.90
10722;DHT22;5412;59.450;18.124;2023-01-15T00:38:41;6.20;99.90
10722;DHT22;5412;59.450;18.124;2023-01-15T00:41:06;6.10;99.90
10722;DHT22;5412;59.450;18.124;2023-01-15T00:43:32;6.20;99.90
10722;DHT22;5412;59.450;18.124;2023-01-15T00:45:58;6.20;99.90
10722;DHT22;5412;59.450;18.124;2023-01-15T00:48:24;6.20;99.90
10722;DHT22;5412;59.450;18.124;2023-01-15T00:50:49;6.10;99.90
10722;DHT22;5412;59.450;18.124;2023-01-15T00:53:15;6.10;99.90
10722;DHT22;5412;59.450;18.124;2023-01-15T00:55:41;6.10;99.90
10722;DHT22;5412;59.450;18.124;2023-01-15T00:58:07;6.10;99.90
10722;DHT22;5412;59.450;18.124;2023-01-15T01:00:32;6.00;99.90
10722;DHT22;5412;59.450;18.124;2023-01-15T01:02:58;6.00;99.90
10722;DHT22;5412;59.450;18.124;2023-01-15T01:05:24;6.00;99.90
10722;DHT22;5412;59.450;18.124;2023-01-15T01:07:50;5.90;99.90
10722;DHT22;5412;59.450;18.124;2023-01-15T01:10:16;5.90;99.90
10722;DHT22;5412;59.450;18.124;2023-01-15T01:12:42;5.90;99.90
10722;DHT22;5412;59.450;18.124;2023-01-15T01:15:08;5.80;99.90
10722;DHT22;5412;59.450;18.124;2023-01-15T01:17:37;5.70;99.90
10722;DHT22;5412;59.450;18.124;2023-01-15T01:20:04;5.70;99.90
10722;DHT22;5412;59.450;18.124;2023-01-15T01:22:30;5.60;99.90
10722;DHT22;5412;59.450;18.124;2023-01-15T01:24:58;5.70;99.90
10722;DHT22;5412;59.450;18.124;2023-01-15T01:27:24;5.60;99.90
10722;DHT22;5412;59.450;18.124;2023-01-15T01:29:49;5.60;99.90
10722;DHT22;5412;59.450;18.124;2023-01-15T01:32:15;5.50;99.90
10722;DHT22;5412;59.450;18.124;2023-01-15T01:34:41;5.50;99.90
10722;DHT22;5412;59.450;18.124;2023-01-15T01:37:07;5.40;99.90
10722;DHT22;5412;59.450;18.124;2023-01-15T01:39:32;5.40;99.90
10722;DHT22;5412;59.450;18.124;2023-01-15T01:41:58;5.40;99.90
10722;DHT22;5412;59.450;18.124;2023-01-15T01:47:07;5.40;99.90
10722;DHT22;5412;59.450;18.124;2023-01-15T01:49:35;5.30;99.90
10722;DHT22;5412;59.450;18.124;2023-01-15T01:52:06;5.30;99.90
10722;DHT22;5412;59.450;18.124;2023-01-15T01:54:35;5.20;99.90
10722;DHT22;5412;59.450;18.124;2023-01-15T01:57:02;5.20;99.90
10722;DHT22;5412;59.450;18.124;2023-01-15T01:59:30;5.30;99.90
10722;DHT22;5412;59.450;18.124;2023-01-15T02:01:56;5.20;99.90
10722;DHT22;5412;59.450;18.124;2023-01-15T02:04:25;5.20;99.90
10722;DHT22;5412;59.450;18.124;2023-01-15T02:06:51;5.30;99.90
10722;DHT22;5412;59.450;18.124;2023-01-15T02:09:17;5.20;99.90
10722;DHT22;5412;59.450;18.124;2023-01-15T02:11:43;5.10;99.90
10722;DHT22;5412;59.450;18.124;2023-01-15T02:14:29;5.10;99.90
10722;DHT22;5412;59.450;18.124;2023-01-15T02:17:00;5.20;99.90
10722;DHT22;5412;59.450;18.124;2023-01-15T02:22:05;5.10;99.90
10722;DHT22;5412;59.450;18.124;2023-01-15T02:24:50;5.00;99.90
10722;DHT22;5412;59.450;18.124;2023-01-15T02:27:22;5.00;99.90
10722;DHT22;5412;59.450;18.124;2023-01-15T02:30:03;5.00;99.90
10722;DHT22;5412;59.450;18.124;2023-01-15T02:32:42;5.00;99.90
10722;DHT22;5412;59.450;18.124;2023-01-15T02:35:18;5.00;99.90
10722;DHT22;5412;59.450;18.124;2023-01-15T02:37:48;5.00;99.90
10722;DHT22;5412;59.450;18.124;2023-01-15T02:40:18;4.90;99.90
10722;DHT22;5412;59.450;18.124;2023-01-15T02:42:46;4.90;99.90
10722;DHT22;5412;59.450;18.124;2023-01-15T02:45:15;4.90;99.90
10722;DHT22;5412;59.450;18.124;2023-01-15T02:47:43;4.80;99.90
10722;DHT22;5412;59.450;18.124;2023-01-15T02:50:14;4.80;99.90
10722;DHT22;5412;59.450;18.124;2023-01-15T02:52:46;4.70;99.90
10722;DHT22;5412;59.450;18.124;2023-01-15T02:55:18;5.10;99.90
10722;DHT22;5412;59.450;18.124;2023-01-15T02:57:47;4.70;99.90
10722;DHT22;5412;59.450;18.124;2023-01-15T03:00:15;4.70;99.90
10722;DHT22;5412;59.450;18.124;2023-01-15T03:02:48;4.60;99.90
10722;DHT22;5412;59.450;18.124;2023-01-15T03:08:07;4.60;99.90
10722;DHT22;5412;59.450;18.124;2023-01-15T03:10:52;4.60;99.90
10722;DHT22;5412;59.450;18.124;2023-01-15T03:13:28;4.70;99.90
10722;DHT22;5412;59.450;18.124;2023-01-15T03:16:08;4.60;99.90
10722;DHT22;5412;59.450;18.124;2023-01-15T03:27:16;4.70;99.90
10722;DHT22;5412;59.450;18.124;2023-01-15T03:29:46;4.70;99.90
10722;DHT22;5412;59.450;18.124;2023-01-15T03:32:14;4.70;99.90
10722;DHT22;5412;59.450;18.124;2023-01-15T03:34:48;4.80;99.90
10722;DHT22;5412;59.450;18.124;2023-01-15T03:37:14;4.80;99.90
10722;DHT22;5412;59.450;18.124;2023-01-15T03:39:40;4.80;99.90
10722;DHT22;5412;59.450;18.124;2023-01-15T03:45:23;4.70;99.90
10722;DHT22;5412;59.450;18.124;2023-01-15T03:48:54;4.70;99.90
10722;DHT22;5412;59.450;18.124;2023-01-15T03:53:55;4.70;99.90
10722;DHT22;5412;59.450;18.124;2023-01-15T03:56:46;4.70;99.90
10722;DHT22;5412;59.450;18.124;2023-01-15T03:59:31;4.70;99.90
10722;DHT22;5412;59.450;18.124;2023-01-15T04:01:59;4.70;99.90
10722;DHT22;5412;59.450;18.124;2023-01-15T04:04:26;4.70;99.90
10722;DHT22;5412;59.450;18.124;2023-01-15T04:06:53;4.60;99.90
10722;DHT22;5412;59.450;18.124;2023-01-15T04:09:20;4.60;99.90
10722;DHT22;5412;59.450;18.124;2023-01-15T04:11:47;4.60;99.90
10722;DHT22;5412;59.450;18.124;2023-01-15T04:14:13;4.70;99.90
10722;DHT22;5412;59.450;18.124;2023-01-15T04:16:40;4.70;99.90
10722;DHT22;5412;59.450;18.124;2023-01-15T04:19:05;4.70;99.90
10722;DHT22;5412;59.450;18.124;2023-01-15T04:21:31;4.70;99.90
10722;DHT22;5412;59.450;18.124;2023-01-15T04:23:57;4.60;99.90
10722;DHT22;5412;59.450;18.124;2023-01-15T04:26:23;4.70;99.90
10722;DHT22;5412;59.450;18.124;2023-01-15T04:28:48;4.70;99.90
10722;DHT22;5412;59.450;18.124;2023-01-15T04:31:14;4.90;99.90
10722;DHT22;5412;59.450;18.124;2023-01-15T04:33:40;4.80;99.90
10722;DHT22;5412;59.450;18.124;2023-01-15T04:36:06;4.80;99.90
10722;DHT22;5412;59.450;18.124;2023-01-15T04:38:33;4.80;99.90
10722;DHT22;5412;59.450;18.124;2023-01-15T04:41:00;4.90;99.90
10722;DHT22;5412;59.450;18.124;2023-01-15T04:43:45;4.90;99.90
10722;DHT22;5412;59.450;18.124;2023-01-15T04:46:29;4.90;99.90
10722;DHT22;5412;59.450;18.124;2023-01-15T04:48:55;4.90;99.90
10722;DHT22;5412;59.450;18.124;2023-01-15T04:51:20;5.20;99.90
10722;DHT22;5412;59.450;18.124;2023-01-15T04:53:46;5.00;99.90
10722;DHT22;5412;59.450;18.124;2023-01-15T04:56:12;5.10;99.90
10722;DHT22;5412;59.450;18.124;2023-01-15T04:58:38;5.10;99.90
10722;DHT22;5412;59.450;18.124;2023-01-15T05:01:10;5.20;99.90
10722;DHT22;5412;59.450;18.124;2023-01-15T05:03:36;5.20;99.90
10722;DHT22;5412;59.450;18.124;2023-01-15T05:06:02;5.20;99.90
10722;DHT22;5412;59.450;18.124;2023-01-15T05:08:28;5.20;99.90
10722;DHT22;5412;59.450;18.124;2023-01-15T05:10:54;5.20;99.90
10722;DHT22;5412;59.450;18.124;2023-01-15T05:13:20;5.30;99.90
10722;DHT22;5412;59.450;18.124;2023-01-15T05:15:46;5.30;99.90
10722;DHT22;5412;59.450;18.124;2023-01-15T05:18:13;5.30;99.90
10722;DHT22;5412;59.450;18.124;2023-01-15T05:20:42;5.40;99.90
10722;DHT22;5412;59.450;18.124;2023-01-15T05:23:08;5.50;99.90
10722;DHT22;5412;59.450;18.124;2023-01-15T05:25:37;5.50;99.90
10722;DHT22;5412;59.450;18.124;2023-01-15T05:28:03;5.60;99.90
10722;DHT22;5412;59.450;18.124;2023-01-15T05:30:28;5.60;99.90
10722;DHT22;5412;59.450;18.124;2023-01-15T05:32:54;5.60;99.90
10722;DHT22;5412;59.450;18.124;2023-01-15T05:35:20;5.70;99.90
10722;DHT22;5412;59.450;18.124;2023-01-15T05:37:46;5.70;99.90
10722;DHT22;5412;59.450;18.124;2023-01-15T05:40:12;5.80;99.90
10722;DHT22;5412;59.450;18.124;2023-01-15T05:42:37;5.80;99.90
10722;DHT22;5412;59.450;18.124;2023-01-15T05:45:03;5.80;99.90
10722;DHT22;5412;59.450;18.124;2023-01-15T05:47:29;5.80;99.90
10722;DHT22;5412;59.450;18.124;2023-01-15T05:49:55;5.80;99.90
10722;DHT22;5412;59.450;18.124;2023-01-15T05:52:21;5.90;99.90
10722;DHT22;5412;59.450;18.124;2023-01-15T05:54:48;5.80;99.90
10722;DHT22;5412;59.450;18.124;2023-01-15T05:57:14;5.90;99.90
10722;DHT22;5412;59.450;18.124;2023-01-15T05:59:40;5.90;99.90
10722;DHT22;5412;59.450;18.124;2023-01-15T06:02:06;5.90;99.90
10722;DHT22;5412;59.450;18.124;2023-01-15T06:04:31;5.90;99.90
10722;DHT22;5412;59.450;18.124;2023-01-15T06:06:57;5.90;99.90
10722;DHT22;5412;59.450;18.124;2023-01-15T06:09:24;6.00;99.90
10722;DHT22;5412;59.450;18.124;2023-01-15T06:11:52;5.90;99.90
10722;DHT22;5412;59.450;18.124;2023-01-15T06:14:18;5.80;99.90
10722;DHT22;5412;59.450;18.124;2023-01-15T06:16:44;5.90;99.90
10722;DHT22;5412;59.450;18.124;2023-01-15T06:19:12;5.70;99.90
10722;DHT22;5412;59.450;18.124;2023-01-15T06:21:38;5.80;99.90
10722;DHT22;5412;59.450;18.124;2023-01-15T06:24:04;5.70;99.90
10722;DHT22;5412;59.450;18.124;2023-01-15T06:26:30;5.70;99.90
10722;DHT22;5412;59.450;18.124;2023-01-15T06:28:56;6.20;99.90
10722;DHT22;5412;59.450;18.124;2023-01-15T06:31:23;5.70;99.90
10722;DHT22;5412;59.450;18.124;2023-01-15T06:33:51;5.70;99.90
10722;DHT22;5412;59.450;18.124;2023-01-15T06:36:19;5.70;99.90
10722;DHT22;5412;59.450;18.124;2023-01-15T06:38:48;5.70;99.90
10722;DHT22;5412;59.450;18.124;2023-01-15T06:41:20;5.70;99.90
10722;DHT22;5412;59.450;18.124;2023-01-15T06:44:06;5.80;99.90
10722;DHT22;5412;59.450;18.124;2023-01-15T06:46:50;5.80;99.90
10722;DHT22;5412;59.450;18.124;2023-01-15T06:49:36;5.80;99.90
10722;DHT22;5412;59.450;18.124;2023-01-15T06:52:03;5.70;99.90
10722;DHT22;5412;59.450;18.124;2023-01-15T06:54:29;5.90;99.90
10722;DHT22;5412;59.450;18.124;2023-01-15T06:56:55;6.00;99.90
10722;DHT22;5412;59.450;18.124;2023-01-15T06:59:21;5.70;99.90
10722;DHT22;5412;59.450;18.124;2023-01-15T07:01:47;5.80;99.90
10722;DHT22;5412;59.450;18.124;2023-01-15T07:04:13;5.80;99.90
10722;DHT22;5412;59.450;18.124;2023-01-15T07:06:39;5.70;99.90
10722;DHT22;5412;59.450;18.124;2023-01-15T07:09:05;5.70;99.90
10722;DHT22;5412;59.450;18.124;2023-01-15T07:11:31;5.60;99.90
10722;DHT22;5412;59.450;18.124;2023-01-15T07:13:57;5.60;99.90
10722;DHT22;5412;59.450;18.124;2023-01-15T07:16:35;5.50;99.90
10722;DHT22;5412;59.450;18.124;2023-01-15T07:19:01;5.50;99.90
10722;DHT22;5412;59.450;18.124;2023-01-15T07:21:27;5.50;99.90
10722;DHT22;5412;59.450;18.124;2023-01-15T07:23:54;5.40;99.90
10722;DHT22;5412;59.450;18.124;2023-01-15T07:26:22;5.30;99.90
10722;DHT22;5412;59.450;18.124;2023-01-15T07:28:48;5.30;99.90
10722;DHT22;5412;59.450;18.124;2023-01-15T07:31:14;5.20;99.90
10722;DHT22;5412;59.450;18.124;2023-01-15T07:33:40;5.20;99.90
10722;DHT22;5412;59.450;18.124;2023-01-15T07:36:06;5.10;99.90
10722;DHT22;5412;59.450;18.124;2023-01-15T07:38:32;5.00;99.90
10722;DHT22;5412;59.450;18.124;2023-01-15T07:40:58;5.00;99.90
10722;DHT22;5412;59.450;18.124;2023-01-15T07:43:43;5.00;99.90
10722;DHT22;5412;59.450;18.124;2023-01-15T07:46:27;5.00;99.90
10722;DHT22;5412;59.450;18.124;2023-01-15T07:49:12;4.90;99.90
10722;DHT22;5412;59.450;18.124;2023-01-15T07:51:56;4.80;99.90
10722;DHT22;5412;59.450;18.124;2023-01-15T07:54:22;4.60;99.90
10722;DHT22;5412;59.450;18.124;2023-01-15T07:56:49;4.70;99.90
10722;DHT22;5412;59.450;18.124;2023-01-15T07:59:16;4.60;99.90
10722;DHT22;5412;59.450;18.124;2023-01-15T08:01:41;4.60;99.90
10722;DHT22;5412;59.450;18.124;2023-01-15T08:04:07;4.70;99.90
10722;DHT22;5412;59.450;18.124;2023-01-15T08:06:34;4.70;99.90
10722;DHT22;5412;59.450;18.124;2023-01-15T08:09:00;4.70;99.90
10722;DHT22;5412;59.450;18.124;2023-01-15T08:11:26;4.70;99.90
10722;DHT22;5412;59.450;18.124;2023-01-15T08:14:10;4.80;99.90
10722;DHT22;5412;59.450;18.124;2023-01-15T08:16:54;4.80;99.90
10722;DHT22;5412;59.450;18.124;2023-01-15T08:19:20;4.80;99.90
10722;DHT22;5412;59.450;18.124;2023-01-15T08:21:46;4.80;99.90
10722;DHT22;5412;59.450;18.124;2023-01-15T08:24:12;4.70;99.90
10722;DHT22;5412;59.450;18.124;2023-01-15T08:26:38;4.80;99.90
10722;DHT22;5412;59.450;18.124;2023-01-15T08:29:04;4.80;99.90
10722;DHT22;5412;59.450;18.124;2023-01-15T08:31:30;4.80;99.90
10722;DHT22;5412;59.450;18.124;2023-01-15T08:33:55;4.70;99.90
10722;DHT22;5412;59.450;18.124;2023-01-15T08:36:21;4.80;99.90
10722;DHT22;5412;59.450;18.124;2023-01-15T08:38:50;4.90;99.90
10722;DHT22;5412;59.450;18.124;2023-01-15T08:41:15;4.90;99.90
10722;DHT22;5412;59.450;18.124;2023-01-15T08:43:41;5.00;99.90
10722;DHT22;5412;59.450;18.124;2023-01-15T08:46:08;4.90;99.90
10722;DHT22;5412;59.450;18.124;2023-01-15T08:48:34;4.90;99.90
10722;DHT22;5412;59.450;18.124;2023-01-15T08:51:06;4.90;99.90
10722;DHT22;5412;59.450;18.124;2023-01-15T08:53:32;4.90;99.90
10722;DHT22;5412;59.450;18.124;2023-01-15T08:55:58;5.00;99.90
10722;DHT22;5412;59.450;18.124;2023-01-15T08:58:27;4.90;99.90
10722;DHT22;5412;59.450;18.124;2023-01-15T09:00:54;5.00;99.90
10722;DHT22;5412;59.450;18.124;2023-01-15T09:03:20;5.00;99.90
10722;DHT22;5412;59.450;18.124;2023-01-15T09:05:46;5.00;99.90
10722;DHT22;5412;59.450;18.124;2023-01-15T09:08:12;5.00;99.90
10722;DHT22;5412;59.450;18.124;2023-01-15T09:10:37;5.10;99.90
10722;DHT22;5412;59.450;18.124;2023-01-15T09:13:04;5.10;99.90
10722;DHT22;5412;59.450;18.124;2023-01-15T09:15:31;5.10;99.90
10722;DHT22;5412;59.450;18.124;2023-01-15T09:17:57;5.10;99.90
10722;DHT22;5412;59.450;18.124;2023-01-15T09:20:23;5.10;99.90
10722;DHT22;5412;59.450;18.124;2023-01-15T09:22:50;5.10;99.90
10722;DHT22;5412;59.450;18.124;2023-01-15T09:25:16;5.00;99.90
10722;DHT22;5412;59.450;18.124;2023-01-15T09:27:44;4.90;99.90
10722;DHT22;5412;59.450;18.124;2023-01-15T09:30:16;4.90;99.90
10722;DHT22;5412;59.450;18.124;2023-01-15T09:32:42;4.90;99.90
10722;DHT22;5412;59.450;18.124;2023-01-15T09:35:08;4.80;99.90
10722;DHT22;5412;59.450;18.124;2023-01-15T09:37:34;4.80;99.90
10722;DHT22;5412;59.450;18.124;2023-01-15T09:40:00;4.80;99.90
10722;DHT22;5412;59.450;18.124;2023-01-15T09:53:42;4.90;99.90
10722;DHT22;5412;59.450;18.124;2023-01-15T09:56:24;4.80;99.90
10722;DHT22;5412;59.450;18.124;2023-01-15T09:58:52;4.70;99.90
10722;DHT22;5412;59.450;18.124;2023-01-15T10:01:24;4.80;99.90
10722;DHT22;5412;59.450;18.124;2023-01-15T10:06:55;4.80;99.90
10722;DHT22;5412;59.450;18.124;2023-01-15T10:09:28;4.80;99.90
10722;DHT22;5412;59.450;18.124;2023-01-15T10:12:11;4.90;99.90
10722;DHT22;5412;59.450;18.124;2023-01-15T10:15:16;5.00;99.90
10722;DHT22;5412;59.450;18.124;2023-01-15T10:17:51;5.00;99.90
10722;DHT22;5412;59.450;18.124;2023-01-15T10:29:00;5.30;99.90
10722;DHT22;5412;59.450;18.124;2023-01-15T10:37:13;5.40;99.90
10722;DHT22;5412;59.450;18.124;2023-01-15T10:47:11;5.50;99.90
10722;DHT22;5412;59.450;18.124;2023-01-15T10:49:38;5.50;99.90
10722;DHT22;5412;59.450;18.124;2023-01-15T10:52:16;5.60;99.90
10722;DHT22;5412;59.450;18.124;2023-01-15T10:54:48;5.70;99.90
10722;DHT22;5412;59.450;18.124;2023-01-15T10:57:40;5.60;99.90
10722;DHT22;5412;59.450;18.124;2023-01-15T11:00:09;5.70;99.90
10722;DHT22;5412;59.450;18.124;2023-01-15T11:03:13;5.60;99.90
10722;DHT22;5412;59.450;18.124;2023-01-15T11:05:34;5.50;99.90
10722;DHT22;5412;59.450;18.124;2023-01-15T11:08:04;5.70;99.90
10722;DHT22;5412;59.450;18.124;2023-01-15T11:10:32;5.60;99.90
10722;DHT22;5412;59.450;18.124;2023-01-15T11:15:54;5.60;99.90
10722;DHT22;5412;59.450;18.124;2023-01-15T11:18:41;5.60;99.90
10722;DHT22;5412;59.450;18.124;2023-01-15T11:21:26;5.60;99.90
10722;DHT22;5412;59.450;18.124;2023-01-15T11:23:54;5.50;99.90
10722;DHT22;5412;59.450;18.124;2023-01-15T11:26:22;5.50;99.90
10722;DHT22;5412;59.450;18.124;2023-01-15T11:28:48;5.50;99.90
10722;DHT22;5412;59.450;18.124;2023-01-15T11:31:15;5.60;99.90
10722;DHT22;5412;59.450;18.124;2023-01-15T11:33:58;5.60;99.90
10722;DHT22;5412;59.450;18.124;2023-01-15T11:36:26;5.70;99.90
10722;DHT22;5412;59.450;18.124;2023-01-15T11:38:52;5.70;99.90
10722;DHT22;5412;59.450;18.124;2023-01-15T11:41:30;5.80;99.90
10722;DHT22;5412;59.450;18.124;2023-01-15T11:44:19;5.80;99.90
10722;DHT22;5412;59.450;18.124;2023-01-15T11:47:10;5.80;99.90
10722;DHT22;5412;59.450;18.124;2023-01-15T11:49:55;5.70;99.90
10722;DHT22;5412;59.450;18.124;2023-01-15T11:52:58;5.70;99.90
10722;DHT22;5412;59.450;18.124;2023-01-15T11:55:25;5.60;99.90
10722;DHT22;5412;59.450;18.124;2023-01-15T11:57:52;5.70;99.90
10722;DHT22;5412;59.450;18.124;2023-01-15T12:00:28;5.70;99.90
10722;DHT22;5412;59.450;18.124;2023-01-15T12:02:58;5.70;99.90
10722;DHT22;5412;59.450;18.124;2023-01-15T12:05:30;5.70;99.90
10722;DHT22;5412;59.450;18.124;2023-01-15T12:07:59;5.70;99.90
10722;DHT22;5412;59.450;18.124;2023-01-15T12:10:36;5.70;99.90
10722;DHT22;5412;59.450;18.124;2023-01-15T12:22:09;5.70;99.90
10722;DHT22;5412;59.450;18.124;2023-01-15T12:24:58;5.70;99.90
10722;DHT22;5412;59.450;18.124;2023-01-15T12:28:09;5.80;99.90
10722;DHT22;5412;59.450;18.124;2023-01-15T12:33:35;5.70;99.90
10722;DHT22;5412;59.450;18.124;2023-01-15T12:36:23;5.70;99.90
10722;DHT22;5412;59.450;18.124;2023-01-15T12:39:02;5.80;99.90
10722;DHT22;5412;59.450;18.124;2023-01-15T12:47:21;5.90;99.90
10722;DHT22;5412;59.450;18.124;2023-01-15T12:49:54;5.80;99.90
10722;DHT22;5412;59.450;18.124;2023-01-15T12:52:30;5.70;99.90
10722;DHT22;5412;59.450;18.124;2023-01-15T12:55:25;5.70;99.90
10722;DHT22;5412;59.450;18.124;2023-01-15T12:58:04;5.70;99.90
10722;DHT22;5412;59.450;18.124;2023-01-15T13:00:41;5.60;99.90
10722;DHT22;5412;59.450;18.124;2023-01-15T13:05:50;5.60;99.90
10722;DHT22;5412;59.450;18.124;2023-01-15T13:08:31;5.70;99.90
10722;DHT22;5412;59.450;18.124;2023-01-15T13:10:57;5.70;99.90
10722;DHT22;5412;59.450;18.124;2023-01-15T13:13:28;5.70;99.90
10722;DHT22;5412;59.450;18.124;2023-01-15T13:16:06;5.70;99.90
10722;DHT22;5412;59.450;18.124;2023-01-15T13:21:26;5.90;99.90
10722;DHT22;5412;59.450;18.124;2023-01-15T13:39:42;5.80;99.90
10722;DHT22;5412;59.450;18.124;2023-01-15T13:42:20;5.80;99.90
10722;DHT22;5412;59.450;18.124;2023-01-15T13:44:58;5.80;99.90
10722;DHT22;5412;59.450;18.124;2023-01-15T13:47:28;5.90;99.90
10722;DHT22;5412;59.450;18.124;2023-01-15T13:50:04;5.70;99.90
10722;DHT22;5412;59.450;18.124;2023-01-15T13:55:09;5.70;99.90
10722;DHT22;5412;59.450;18.124;2023-01-15T13:57:38;5.70;99.90
10722;DHT22;5412;59.450;18.124;2023-01-15T14:00:34;5.60;99.90
10722;DHT22;5412;59.450;18.124;2023-01-15T14:03:21;5.70;99.90
10722;DHT22;5412;59.450;18.124;2023-01-15T14:05:59;5.60;99.90
10722;DHT22;5412;59.450;18.124;2023-01-15T14:08:43;5.60;99.90
10722;DHT22;5412;59.450;18.124;2023-01-15T14:11:36;5.50;99.90
10722;DHT22;5412;59.450;18.124;2023-01-15T14:27:23;5.60;99.90
10722;DHT22;5412;59.450;18.124;2023-01-15T14:35:18;5.50;99.90
10722;DHT22;5412;59.450;18.124;2023-01-15T14:37:49;5.50;99.90
10722;DHT22;5412;59.450;18.124;2023-01-15T14:40:30;5.50;99.90
10722;DHT22;5412;59.450;18.124;2023-01-15T14:43:07;5.60;99.90
10722;DHT22;5412;59.450;18.124;2023-01-15T14:50:52;5.30;99.90
10722;DHT22;5412;59.450;18.124;2023-01-15T14:53:39;5.40;99.90
10722;DHT22;5412;59.450;18.124;2023-01-15T14:56:34;5.40;99.90
10722;DHT22;5412;59.450;18.124;2023-01-15T15:09:42;5.00;99.90
10722;DHT22;5412;59.450;18.124;2023-01-15T15:12:20;5.00;99.90
10722;DHT22;5412;59.450;18.124;2023-01-15T15:20:36;5.00;99.90
10722;DHT22;5412;59.450;18.124;2023-01-15T15:26:22;4.90;99.90
10722;DHT22;5412;59.450;18.124;2023-01-15T15:29:09;4.90;99.90
10722;DHT22;5412;59.450;18.124;2023-01-15T15:31:42;4.90;99.90
10722;DHT22;5412;59.450;18.124;2023-01-15T15:34:16;4.90;99.90
10722;DHT22;5412;59.450;18.124;2023-01-15T15:36:45;4.80;99.90
10722;DHT22;5412;59.450;18.124;2023-01-15T15:42:00;4.70;99.90
10722;DHT22;5412;59.450;18.124;2023-01-15T15:44:54;4.70;99.90
10722;DHT22;5412;59.450;18.124;2023-01-15T15:47:41;4.70;99.90
10722;DHT22;5412;59.450;18.124;2023-01-15T15:50:33;4.70;99.90
10722;DHT22;5412;59.450;18.124;2023-01-15T15:52:59;4.70;99.90
10722;DHT22;5412;59.450;18.124;2023-01-15T15:55:41;4.80;99.90
10722;DHT22;5412;59.450;18.124;2023-01-15T15:58:18;4.70;99.90
10722;DHT22;5412;59.450;18.124;2023-01-15T16:00:46;4.70;99.90
10722;DHT22;5412;59.450;18.124;2023-01-15T16:03:20;4.80;99.90
10722;DHT22;5412;59.450;18.124;2023-01-15T16:06:01;4.70;99.90
10722;DHT22;5412;59.450;18.124;2023-01-15T16:08:30;4.70;99.90
10722;DHT22;5412;59.450;18.124;2023-01-15T16:11:04;4.70;99.90
10722;DHT22;5412;59.450;18.124;2023-01-15T16:13:37;4.60;99.90
10722;DHT22;5412;59.450;18.124;2023-01-15T16:16:05;4.60;99.90
10722;DHT22;5412;59.450;18.124;2023-01-15T16:18:41;4.60;99.90
10722;DHT22;5412;59.450;18.124;2023-01-15T16:21:10;4.60;99.90
10722;DHT22;5412;59.450;18.124;2023-01-15T16:23:40;4.50;99.90
10722;DHT22;5412;59.450;18.124;2023-01-15T16:26:18;4.50;99.90
10722;DHT22;5412;59.450;18.124;2023-01-15T16:28:54;4.60;99.90
10722;DHT22;5412;59.450;18.124;2023-01-15T16:31:21;4.50;99.90
10722;DHT22;5412;59.450;18.124;2023-01-15T16:33:52;4.50;99.90
10722;DHT22;5412;59.450;18.124;2023-01-15T16:36:20;4.50;99.90
10722;DHT22;5412;59.450;18.124;2023-01-15T16:38:47;4.50;99.90
10722;DHT22;5412;59.450;18.124;2023-01-15T16:41:36;4.50;99.90
10722;DHT22;5412;59.450;18.124;2023-01-15T16:44:04;4.50;99.90
10722;DHT22;5412;59.450;18.124;2023-01-15T16:46:33;4.50;99.90
10722;DHT22;5412;59.450;18.124;2023-01-15T16:51:52;4.60;99.90
10722;DHT22;5412;59.450;18.124;2023-01-15T17:02:15;4.50;99.90
10722;DHT22;5412;59.450;18.124;2023-01-15T17:04:43;4.40;99.90
10722;DHT22;5412;59.450;18.124;2023-01-15T17:09:43;4.50;99.90
10722;DHT22;5412;59.450;18.124;2023-01-15T17:12:38;4.50;99.90
10722;DHT22;5412;59.450;18.124;2023-01-15T17:17:46;4.50;99.90
10722;DHT22;5412;59.450;18.124;2023-01-15T17:20:14;4.50;99.90
10722;DHT22;5412;59.450;18.124;2023-01-15T17:22:42;4.40;99.90
10722;DHT22;5412;59.450;18.124;2023-01-15T17:25:38;4.50;99.90
10722;DHT22;5412;59.450;18.124;2023-01-15T17:28:04;4.50;99.90
10722;DHT22;5412;59.450;18.124;2023-01-15T17:30:31;4.50;99.90
10722;DHT22;5412;59.450;18.124;2023-01-15T17:33:02;4.50;99.90
10722;DHT22;5412;59.450;18.124;2023-01-15T17:35:36;4.50;99.90
10722;DHT22;5412;59.450;18.124;2023-01-15T17:38:02;4.50;99.90
10722;DHT22;5412;59.450;18.124;2023-01-15T17:40:28;4.50;99.90
10722;DHT22;5412;59.450;18.124;2023-01-15T17:42:55;4.50;99.90
10722;DHT22;5412;59.450;18.124;2023-01-15T17:45:23;4.50;99.90
10722;DHT22;5412;59.450;18.124;2023-01-15T17:47:50;4.50;99.90
10722;DHT22;5412;59.450;18.124;2023-01-15T17:50:16;4.50;99.90
10722;DHT22;5412;59.450;18.124;2023-01-15T17:52:43;4.60;99.90
10722;DHT22;5412;59.450;18.124;2023-01-15T17:55:11;4.50;99.90
10722;DHT22;5412;59.450;18.124;2023-01-15T17:57:56;4.60;99.90
10722;DHT22;5412;59.450;18.124;2023-01-15T18:00:41;4.50;99.90
10722;DHT22;5412;59.450;18.124;2023-01-15T18:03:25;4.60;99.90
10722;DHT22;5412;59.450;18.124;2023-01-15T18:06:11;4.60;99.90
10722;DHT22;5412;59.450;18.124;2023-01-15T18:08:39;4.60;99.90
10722;DHT22;5412;59.450;18.124;2023-01-15T18:11:05;4.60;99.90
10722;DHT22;5412;59.450;18.124;2023-01-15T18:13:31;4.50;99.90
10722;DHT22;5412;59.450;18.124;2023-01-15T18:15:56;4.50;99.90
10722;DHT22;5412;59.450;18.124;2023-01-15T18:18:22;4.50;99.90
10722;DHT22;5412;59.450;18.124;2023-01-15T18:20:48;4.50;99.90
10722;DHT22;5412;59.450;18.124;2023-01-15T18:23:14;4.50;99.90
10722;DHT22;5412;59.450;18.124;2023-01-15T18:25:39;4.50;99.90
10722;DHT22;5412;59.450;18.124;2023-01-15T18:28:14;4.50;99.90
10722;DHT22;5412;59.450;18.124;2023-01-15T18:30:40;4.50;99.90
10722;DHT22;5412;59.450;18.124;2023-01-15T18:33:06;4.60;99.90
10722;DHT22;5412;59.450;18.124;2023-01-15T18:35:32;4.50;99.90
10722;DHT22;5412;59.450;18.124;2023-01-15T18:37:58;4.50;99.90
10722;DHT22;5412;59.450;18.124;2023-01-15T18:40:24;4.60;99.90
10722;DHT22;5412;59.450;18.124;2023-01-15T18:42:59;4.50;99.90
10722;DHT22;5412;59.450;18.124;2023-01-15T18:45:47;4.50;99.90
10722;DHT22;5412;59.450;18.124;2023-01-15T18:48:32;4.50;99.90
10722;DHT22;5412;59.450;18.124;2023-01-15T18:50:58;4.60;99.90
10722;DHT22;5412;59.450;18.124;2023-01-15T18:53:30;4.50;99.90
10722;DHT22;5412;59.450;18.124;2023-01-15T18:56:01;4.50;99.90